Terminal Aerodrome Forecast
Issued by NWS Paducah, KY

Home | Current Version | Previous Version | Graphics & Text | Print | Product List | Glossary On
Versions: 1 2 3 4 5 6 7 8 9 10 11 12 13 14 15 16 17 18 19 20 21
000
FTUS43 KPAH 280520
TAFPAH
TAF
KPAH 280520Z 2806/2906 20002KT P6SM BKN300
      TEMPO 2810/2814 4SM BR
     FM281600 18010KT P6SM SCT030
     FM282000 16008KT P6SM BKN050
     FM290000 16006KT P6SM SKC=

USA.gov is the U.S. government's official web portal to all federal, state and local government web resources and services.